Lowlands Sky — 3FJW9 — position and weather

sailwx.info

Track history (hours):
 
Tides and Currents Weather Stations Pressure Air Temp Water Temp Dewpoint Dewpoint Depression Visibility Wind Speed Wind Dir Waves Ship Positions

Lowlands Sky

Last reported at 2015-May-26 08:30 UTC. Time now 2015-May-30 04:24 UTC.
Position N 35°18' W 012°16'.

Length 177 m; draft 9.9 m.

Type: Cargo ship. MMSI: 370830000.

Date/timePositionNaut miles runAvg speedWind from/ knotsBaromVisibWave heightAir tempDewpointWater temp
2015-May-26 08:30N 35°18' W 012°16'4912.4
2015-May-26 04:33N 35°25' W 011°17'1111.4
2015-May-26 03:33N 35°26' W 011°03'1111.2
2015-May-26 02:33N 35°28' W 010°49'1411.2
2015-May-26 01:17N 35°30' W 010°32'811.0
2015-May-26 00:31N 35°31' W 010°22'1311.2
2015-May-25 23:23N 35°32' W 010°06'1011.0
2015-May-25 22:31N 35°34' W 009°54'1111.3
2015-May-25 21:33N 35°35' W 009°41'20011.5
2015-May-25 04:15N 35°58' W 005°37'912.7
2015-May-25 03:33N 35°60' W 005°27'1211.8
2015-May-25 02:33N 36°02' W 005°12'30811.8
2015-May-24 00:23N 37°00' E 001°04'  
2015-May-21 17:33N 37°01' E 012°26'29 9.7
2015-May-21 14:33N 36°49' E 012°60'1010.0
2015-May-21 13:33N 36°45' E 013°11'1010.3
2015-May-21 12:34N 36°42' E 013°23'1010.2
2015-May-21 11:33N 36°37' E 013°34'1110.5
2015-May-21 10:33N 36°33' E 013°46'1111.0
2015-May-21 09:34N 36°29' E 013°59'1211.5
2015-May-21 08:34N 36°24' E 014°12'1211.7
2015-May-21 07:33N 36°19' E 014°25'1111.4
2015-May-21 06:34N 36°17' E 014°39'1111.2
2015-May-21 05:34N 36°15' E 014°53'1111.2
2015-May-21 04:34N 36°14' E 015°06'1110.7
2015-May-21 03:33N 36°16' E 015°19'1513.7
2015-May-21 02:28N 36°16' E 015°38'1112.5
2015-May-21 01:33N 36°16' E 015°52'1411.9
2015-May-21 00:21N 36°15' E 016°10'1111.7
2015-May-20 23:23N 36°15' E 016°24'911.5
2015-May-20 22:33N 36°14' E 016°36'3311.1
2015-May-20 19:33N 36°13' E 017°17'1111.3
2015-May-20 18:32N 36°12' E 017°31'10 9.7
2015-May-20 17:33N 36°12' E 017°43'28810.6
2015-May-19 14:24N 36°42' E 023°40'1311.3
2015-May-19 13:16N 36°52' E 023°49'811.4
2015-May-19 12:33N 36°59' E 023°55'4911.7
2015-May-19 08:23N 37°38' E 024°32'308 8.6
2015-May-17 20:22N 41°24' E 029°04'259 7.2
2015-May-16 08:33N 44°36' E 033°02'  
Track history (hours):
 
Tides and Currents Weather Stations Pressure Air Temp Water Temp Dewpoint Dewpoint Depression Visibility Wind Speed Wind Dir Waves Ship Positions

Lowlands Sky

Last reported at 2015-May-26 08:30 UTC. Time now 2015-May-30 04:24 UTC.
Position N 35°18' W 012°16'.

Length 177 m; draft 9.9 m.

Type: Cargo ship. MMSI: 370830000.

Date/timePositionNaut miles runAvg speedWind from/ knotsBaromVisibWave heightAir tempDewpointWater temp
2015-May-26 08:30N 35°18' W 012°16'4912.4
2015-May-26 04:33N 35°25' W 011°17'1111.4
2015-May-26 03:33N 35°26' W 011°03'1111.2
2015-May-26 02:33N 35°28' W 010°49'1411.2
2015-May-26 01:17N 35°30' W 010°32'811.0
2015-May-26 00:31N 35°31' W 010°22'1311.2
2015-May-25 23:23N 35°32' W 010°06'1011.0
2015-May-25 22:31N 35°34' W 009°54'1111.3
2015-May-25 21:33N 35°35' W 009°41'20011.5
2015-May-25 04:15N 35°58' W 005°37'912.7
2015-May-25 03:33N 35°60' W 005°27'1211.8
2015-May-25 02:33N 36°02' W 005°12'30811.8
2015-May-24 00:23N 37°00' E 001°04'  
2015-May-21 17:33N 37°01' E 012°26'29 9.7
2015-May-21 14:33N 36°49' E 012°60'1010.0
2015-May-21 13:33N 36°45' E 013°11'1010.3
2015-May-21 12:34N 36°42' E 013°23'1010.2
2015-May-21 11:33N 36°37' E 013°34'1110.5
2015-May-21 10:33N 36°33' E 013°46'1111.0
2015-May-21 09:34N 36°29' E 013°59'1211.5
2015-May-21 08:34N 36°24' E 014°12'1211.7
2015-May-21 07:33N 36°19' E 014°25'1111.4
2015-May-21 06:34N 36°17' E 014°39'1111.2
2015-May-21 05:34N 36°15' E 014°53'1111.2
2015-May-21 04:34N 36°14' E 015°06'1110.7
2015-May-21 03:33N 36°16' E 015°19'1513.7
2015-May-21 02:28N 36°16' E 015°38'1112.5
2015-May-21 01:33N 36°16' E 015°52'1411.9
2015-May-21 00:21N 36°15' E 016°10'1111.7
2015-May-20 23:23N 36°15' E 016°24'911.5
2015-May-20 22:33N 36°14' E 016°36'3311.1
2015-May-20 19:33N 36°13' E 017°17'1111.3
2015-May-20 18:32N 36°12' E 017°31'10 9.7
2015-May-20 17:33N 36°12' E 017°43'28810.6
2015-May-19 14:24N 36°42' E 023°40'1311.3
2015-May-19 13:16N 36°52' E 023°49'811.4
2015-May-19 12:33N 36°59' E 023°55'4911.7
2015-May-19 08:23N 37°38' E 024°32'308 8.6
2015-May-17 20:22N 41°24' E 029°04'259 7.2
2015-May-16 08:33N 44°36' E 033°02'  

Dump ship's entire track history